Broughton Island, Canada
Current Conditions -  °F | °C
As of 8:00 AM on Sunday 25 Jan 2015 (Local Time) from CYVM Reporting Station
Ice Pellets Ice Pellets  
Wind Chill: -50°   Ceiling: Unl
Heat Index: -31°   Visibility: 15mi
Dew Point: -40°   Wind: 7mph
Humidity: 62%   Direction: 180°S
Pressure: 29.73"   Gusts: NA
Location:  67.53°N, 63.77°W
Report Text: CYVM 251200Z 18006KT 130V200 15SM IC SKC M35/M40 A2973 RMK SLP069
Loading
Personal Weather Stations






























Interactive Weather Map New forecast layout! Learn more

10-Day Weather Forecast

Advertisements
Track Severe Weather on mobile